Time;durP1;ratioP1;P1;durP2;ratioP2;P2;SDS_P1;SDS_P2;PMS_P1;PMS_P2;Temp;Humidity;BMP_temperature;BMP_pressure;BME280_temperature;BME280_humidity;BME280_pressure;Samples;Min_cycle;Max_cycle;Signal;HPM_P1;HPM_P2
2022/07/29 00:01:52;;;;;;;3.75;2.20;;;;;;;-147.53;100.00;57128.34;10233153;28;20110;-75
2022/07/29 00:06:53;;;;;;;12.02;2.22;;;;;;;-147.53;100.00;57128.34;10230725;28;20121;-74
2022/07/29 00:11:59;;;;;;;4.53;2.03;;;;;;;-147.53;100.00;57128.34;10231243;28;20655;-76
2022/07/29 00:17:00;;;;;;;3.67;1.92;;;;;;;-147.53;100.00;57128.34;10232544;28;21250;-74
2022/07/29 00:22:02;;;;;;;7.00;2.00;;;;;;;-147.53;100.00;57128.34;10235134;28;20043;-75
2022/07/29 00:27:04;;;;;;;6.85;2.03;;;;;;;-147.53;100.00;57128.34;10233854;28;20507;-75
2022/07/29 00:32:05;;;;;;;6.63;2.20;;;;;;;-147.53;100.00;57128.34;10233783;28;20057;-74
2022/07/29 00:37:07;;;;;;;6.63;2.10;;;;;;;-147.53;100.00;57128.34;10232165;28;20118;-73
2022/07/29 00:42:09;;;;;;;4.70;1.80;;;;;;;-147.53;100.00;57128.34;10235780;28;20043;-75
2022/07/29 00:47:11;;;;;;;5.03;2.15;;;;;;;-147.53;100.00;57128.34;10237237;28;20494;-74
2022/07/29 00:52:13;;;;;;;5.95;2.20;;;;;;;-147.53;100.00;57128.34;10238404;28;20051;-75
2022/07/29 00:57:17;;;;;;;7.75;2.25;;;;;;;-147.53;100.00;57128.34;10234209;28;20123;-74
2022/07/29 01:02:19;;;;;;;5.30;2.20;;;;;;;-147.53;100.00;57128.34;10250870;28;20060;-75
2022/07/29 01:07:21;;;;;;;5.15;1.92;;;;;;;-147.53;100.00;57128.34;10265355;28;20061;-74
2022/07/29 01:12:28;;;;;;;5.00;1.83;;;;;;;-147.53;100.00;57128.34;10263281;28;20051;-74
2022/07/29 01:17:38;;;;;;;3.63;1.90;;;;;;;-147.53;100.00;57128.34;10256202;28;20621;-74
2022/07/29 01:23:15;;;;;;;8.38;2.28;;;;;;;-147.53;100.00;57128.34;10235236;28;20053;-73
2022/07/29 01:28:35;;;;;;;4.43;1.80;;;;;;;-147.53;100.00;57128.34;10241553;28;20122;-75
2022/07/29 01:33:49;;;;;;;9.68;1.98;;;;;;;-147.53;100.00;57128.34;10231201;28;20039;-74
2022/07/29 01:39:08;;;;;;;5.03;2.40;;;;;;;-147.53;100.00;57128.34;10232563;28;20143;-74
2022/07/29 01:44:24;;;;;;;6.30;2.00;;;;;;;-147.53;100.00;57128.34;10225473;28;20070;-75
2022/07/29 01:49:35;;;;;;;5.45;2.17;;;;;;;-147.53;100.00;57128.34;10235368;28;20111;-75
2022/07/29 01:54:42;;;;;;;7.13;2.08;;;;;;;-147.53;100.00;57128.34;10234948;28;20406;-75
2022/07/29 01:59:49;;;;;;;5.43;2.08;;;;;;;-147.53;100.00;57128.34;10233502;28;20039;-75
2022/07/29 02:04:53;;;;;;;6.85;2.45;;;;;;;-147.53;100.00;57128.34;10229820;28;20039;-74
2022/07/29 02:09:56;;;;;;;6.00;2.20;;;;;;;-147.53;100.00;57128.34;10237392;28;20035;-74
2022/07/29 02:15:01;;;;;;;7.75;2.05;;;;;;;-147.53;100.00;57128.34;10232104;28;20053;-74
2022/07/29 02:20:04;;;;;;;6.18;2.15;;;;;;;-147.53;100.00;57128.34;10233394;28;20442;-75
2022/07/29 02:25:10;;;;;;;4.97;1.83;;;;;;;-147.53;100.00;57128.34;10228528;28;20050;-74
2022/07/29 02:30:14;;;;;;;6.30;2.13;;;;;;;-147.53;100.00;57128.34;10231435;28;20459;-73
2022/07/29 02:35:16;;;;;;;11.48;1.95;;;;;;;-147.53;100.00;57128.34;10236823;28;20039;-74
2022/07/29 02:40:18;;;;;;;6.30;1.88;;;;;;;-147.53;100.00;57128.34;10238158;28;20043;-73
2022/07/29 02:45:20;;;;;;;5.65;1.83;;;;;;;-147.53;100.00;57128.34;10230773;28;20500;-76
2022/07/29 02:50:45;;;;;;;5.47;2.00;;;;;;;-147.53;100.00;57128.34;10238319;28;20130;-74
2022/07/29 02:55:55;;;;;;;9.70;2.33;;;;;;;-147.53;100.00;57128.34;10236492;28;20043;-75
2022/07/29 03:01:01;;;;;;;7.47;2.22;;;;;;;-147.53;100.00;57128.34;10232394;28;20065;-74
2022/07/29 03:06:04;;;;;;;5.93;1.80;;;;;;;-147.53;100.00;57128.34;10235073;28;20043;-74
2022/07/29 03:11:08;;;;;;;4.38;1.58;;;;;;;-147.53;100.00;57128.34;10235451;28;20055;-74
2022/07/29 03:16:10;;;;;;;3.63;1.80;;;;;;;-147.53;100.00;57128.34;10236467;28;20139;-73
2022/07/29 03:21:11;;;;;;;4.50;1.73;;;;;;;-147.53;100.00;57128.34;10236673;28;20087;-74
2022/07/29 03:26:13;;;;;;;4.10;1.70;;;;;;;-147.53;100.00;57128.34;10236297;28;20035;-75
2022/07/29 03:31:15;;;;;;;5.68;2.10;;;;;;;-147.53;100.00;57128.34;10235898;28;20162;-74
2022/07/29 03:36:16;;;;;;;6.07;1.92;;;;;;;-147.53;100.00;57128.34;10233580;28;20043;-74
2022/07/29 03:41:19;;;;;;;4.13;1.60;;;;;;;-147.53;100.00;57128.34;10236160;28;20133;-74
2022/07/29 03:46:26;;;;;;;5.30;1.75;;;;;;;-147.53;100.00;57128.34;10234208;28;20035;-75
2022/07/29 03:51:28;;;;;;;7.18;1.67;;;;;;;-147.53;100.00;57128.34;10230041;28;20137;-74
2022/07/29 03:56:39;;;;;;;7.20;1.88;;;;;;;-147.53;100.00;57128.34;10220842;28;20046;-74
2022/07/29 04:01:42;;;;;;;3.00;1.50;;;;;;;-147.53;100.00;57128.34;10236980;28;20538;-74
2022/07/29 04:06:45;;;;;;;6.82;1.85;;;;;;;-147.53;100.00;57128.34;10234676;28;20127;-74
2022/07/29 04:11:49;;;;;;;5.75;2.00;;;;;;;-147.53;100.00;57128.34;10229872;28;20428;-74
2022/07/29 04:17:04;;;;;;;8.30;1.70;;;;;;;-147.53;100.00;57128.34;10227900;28;20062;-74
2022/07/29 04:22:06;;;;;;;7.15;1.80;;;;;;;-147.53;100.00;57128.34;10229047;28;20054;-74
2022/07/29 04:27:08;;;;;;;5.97;2.15;;;;;;;-147.53;100.00;57128.34;10232330;28;20043;-73
2022/07/29 04:32:09;;;;;;;8.63;2.20;;;;;;;-147.53;100.00;57128.34;10234953;28;20122;-74
2022/07/29 04:37:11;;;;;;;7.07;2.13;;;;;;;-147.53;100.00;57128.34;10234172;28;20047;-74
2022/07/29 04:42:12;;;;;;;12.10;2.50;;;;;;;-147.53;100.00;57128.34;10233028;28;20055;-74
2022/07/29 04:47:14;;;;;;;8.52;2.30;;;;;;;-147.53;100.00;57128.34;10236546;28;20039;-75
2022/07/29 04:52:15;;;;;;;7.38;2.15;;;;;;;-147.53;100.00;57128.34;10242884;28;20059;-75
2022/07/29 04:57:17;;;;;;;11.18;2.05;;;;;;;-147.53;100.00;57128.34;10241326;28;20048;-74
2022/07/29 05:02:19;;;;;;;7.00;2.13;;;;;;;-147.53;100.00;57128.34;10236204;28;20047;-75
2022/07/29 05:07:20;;;;;;;4.57;2.35;;;;;;;-147.53;100.00;57128.34;10237518;28;20048;-75
2022/07/29 05:12:23;;;;;;;3.70;1.90;;;;;;;-147.53;100.00;57128.34;10238513;28;20616;-73
2022/07/29 05:17:25;;;;;;;7.40;1.98;;;;;;;-147.53;100.00;57128.34;10240859;28;20035;-75
2022/07/29 05:22:26;;;;;;;4.40;1.73;;;;;;;-147.53;100.00;57128.34;10241586;28;20566;-74
2022/07/29 05:27:28;;;;;;;6.50;1.95;;;;;;;-147.53;100.00;57128.34;10240517;28;20118;-73
2022/07/29 05:32:29;;;;;;;9.77;2.08;;;;;;;-147.53;100.00;57128.34;10234602;28;20139;-73
2022/07/29 05:37:31;;;;;;;4.90;1.80;;;;;;;-147.53;100.00;57128.34;10232456;28;20043;-75
2022/07/29 05:42:33;;;;;;;6.13;2.20;;;;;;;-147.53;100.00;57128.34;10235049;28;20051;-74
2022/07/29 05:47:35;;;;;;;6.30;1.58;;;;;;;-147.53;100.00;57128.34;10240934;28;20043;-75
2022/07/29 05:52:36;;;;;;;7.07;1.90;;;;;;;-147.53;100.00;57128.34;10237583;28;20051;-74
2022/07/29 05:57:38;;;;;;;6.40;1.88;;;;;;;-147.53;100.00;57128.34;10237503;28;20147;-73
2022/07/29 06:02:40;;;;;;;7.35;2.03;;;;;;;-147.53;100.00;57128.34;10234331;28;20054;-74
2022/07/29 06:07:41;;;;;;;4.57;2.08;;;;;;;-147.53;100.00;57128.34;10238419;28;20039;-75
2022/07/29 06:12:52;;;;;;;8.10;2.30;;;;;;;-147.53;100.00;57128.34;10235735;28;20870;-74
2022/07/29 06:17:54;;;;;;;7.00;1.95;;;;;;;-147.53;100.00;57128.34;10232010;28;20039;-75
2022/07/29 06:23:04;;;;;;;7.90;2.17;;;;;;;-147.53;100.00;57128.34;10235199;28;20082;-75
2022/07/29 06:28:06;;;;;;;7.22;2.13;;;;;;;-147.53;100.00;57128.34;10236708;28;20736;-75
2022/07/29 06:33:08;;;;;;;6.18;2.10;;;;;;;-147.53;100.00;57128.34;10226993;28;20051;-74
2022/07/29 06:38:09;;;;;;;5.22;2.00;;;;;;;-147.53;100.00;57128.34;10219832;28;20122;-74
2022/07/29 06:43:41;;;;;;;8.88;1.92;;;;;;;-147.53;100.00;57128.34;10237312;28;20043;-75
2022/07/29 06:48:51;;;;;;;;;;;;;;;-147.53;100.00;57128.34;10234276;28;20138;-74
2022/07/29 06:53:53;;;;;;;10.70;2.30;;;;;;;-147.53;100.00;57128.34;10236532;28;20358;-74
2022/07/29 06:59:04;;;;;;;6.22;2.22;;;;;;;-147.53;100.00;57128.34;10224714;28;20140;-75
2022/07/29 07:04:08;;;;;;;12.00;2.38;;;;;;;-147.53;100.00;57128.34;10234944;28;20496;-74
2022/07/29 07:09:09;;;;;;;8.15;2.63;;;;;;;-147.53;100.00;57128.34;10236458;28;20047;-75
2022/07/29 07:14:11;;;;;;;8.65;2.63;;;;;;;-147.53;100.00;57128.34;10229713;28;20098;-75
2022/07/29 07:19:12;;;;;;;7.65;2.42;;;;;;;-147.53;100.00;57128.34;10234587;28;20470;-74
2022/07/29 07:24:14;;;;;;;9.55;2.40;;;;;;;-147.53;100.00;57128.34;10226994;28;20055;-75
2022/07/29 07:29:17;;;;;;;12.90;2.55;;;;;;;-147.53;100.00;57128.34;12111448;23;20017;-85
2022/07/29 07:37:06;;;;;;;4.53;1.88;;;;;;;19.28;69.28;101846.28;10519301;27;20173;-88
2022/07/29 07:42:10;;;;;;;6.00;2.33;;;;;;;19.60;69.03;101977.22;10491887;28;20052;-79
2022/07/29 07:47:19;;;;;;;10.18;2.92;;;;;;;20.01;68.86;102132.28;10492019;28;20487;-85
2022/07/29 07:52:22;;;;;;;7.88;2.03;;;;;;;20.19;68.35;102205.81;10486818;28;20044;-88
2022/07/29 07:57:24;;;;;;;10.00;2.40;;;;;;;20.68;67.99;102387.66;10458031;28;20107;-80
2022/07/29 08:02:26;;;;;;;10.60;2.60;;;;;;;21.34;67.97;102660.22;10401703;28;20053;-84
2022/07/29 08:07:29;;;;;;;6.28;2.20;;;;;;;21.43;67.60;102667.34;10397233;28;20053;-82
2022/07/29 08:12:31;;;;;;;7.57;2.70;;;;;;;21.64;67.27;102748.25;10401592;28;20038;-78
2022/07/29 08:17:33;;;;;;;4.90;2.10;;;;;;;21.93;67.00;102852.28;10408908;28;20064;-81
2022/07/29 08:22:36;;;;;;;8.68;2.10;;;;;;;22.62;66.32;103131.84;10408421;28;20075;-83
2022/07/29 08:27:37;;;;;;;8.85;2.17;;;;;;;22.48;65.88;103043.69;10404057;28;20534;-82
2022/07/29 08:32:44;;;;;;;10.95;2.60;;;;;;;21.75;65.76;102718.94;10408946;28;20554;-83
2022/07/29 08:37:56;;;;;;;9.50;2.05;;;;;;;22.10;65.17;102852.34;10403831;28;20420;-83
2022/07/29 08:43:04;;;;;;;12.00;2.13;;;;;;;23.22;64.88;103311.09;10424739;28;20041;-82
2022/07/29 08:48:07;;;;;;;11.20;2.22;;;;;;;23.40;64.48;103361.06;10419596;28;20087;-82
2022/07/29 08:53:12;;;;;;;7.82;2.13;;;;;;;24.09;64.06;103628.03;10430279;28;20041;-80
2022/07/29 08:58:15;;;;;;;10.20;1.92;;;;;;;24.30;63.72;103693.28;10431425;28;20141;-81
2022/07/29 09:03:23;;;;;;;33.92;2.30;;;;;;;24.70;63.30;103835.50;10417329;28;20038;-80
2022/07/29 09:08:26;;;;;;;6.53;2.28;;;;;;;24.81;62.56;103855.19;10402525;28;20045;-78
2022/07/29 09:13:27;;;;;;;8.18;1.67;;;;;;;25.29;62.15;104019.03;10418106;28;20044;-79
2022/07/29 09:18:40;;;;;;;7.68;1.77;;;;;;;25.51;61.13;104084.47;10409424;28;20137;-80
2022/07/29 09:24:06;;;;;;;7.35;2.15;;;;;;;25.26;60.85;103937.66;10382931;28;20168;-76
2022/07/29 09:29:14;;;;;;;9.23;1.85;;;;;;;25.40;60.29;103971.75;10387992;28;20733;-80
2022/07/29 09:34:22;;;;;;;15.32;4.25;;;;;;;25.35;59.88;103914.50;10390021;28;20502;-80
2022/07/29 09:39:46;;;;;;;5.18;1.90;;;;;;;25.62;59.13;104005.81;10388370;28;20060;-82
2022/07/29 09:44:57;;;;;;;5.15;1.83;;;;;;;25.68;58.59;103995.13;10386928;28;20435;-82
2022/07/29 09:50:11;;;;;;;6.82;2.00;;;;;;;25.76;57.88;103990.66;10406010;28;20033;-82
2022/07/29 09:55:21;;;;;;;7.80;2.17;;;;;;;25.75;57.61;103959.38;10397486;28;20189;-81
2022/07/29 10:01:23;;;;;;;;;;;;;;;;;;;;;
2022/07/29 10:06:34;;;;;;;11.65;2.50;;;;;;;26.96;56.78;104410.38;10365288;28;20037;-84
2022/07/29 10:12:10;;;;;;;11.73;2.00;;;;;;;26.77;56.26;104282.13;10383832;28;20050;-86
2022/07/29 10:17:22;;;;;;;7.38;2.35;;;;;;;26.36;55.79;104078.59;10407888;28;20045;-83
2022/07/29 10:22:30;;;;;;;10.10;2.70;;;;;;;25.90;55.25;103861.88;10392129;28;20131;-83
2022/07/29 10:27:54;;;;;;;11.23;3.60;;;;;;;25.99;54.70;103871.78;10416148;28;20080;-83
2022/07/29 10:33:01;;;;;;;14.80;2.58;;;;;;;25.65;54.35;103702.66;10420766;28;20499;-82
2022/07/29 10:38:15;;;;;;;9.43;2.78;;;;;;;25.30;54.25;103545.31;10445269;28;20068;-83
2022/07/29 10:43:23;;;;;;;8.30;2.55;;;;;;;25.29;53.87;103519.34;10391563;28;20447;-84
2022/07/29 10:48:26;;;;;;;8.10;2.25;;;;;;;25.21;53.47;103480.03;10421826;28;20104;-82
2022/07/29 10:53:50;;;;;;;4.95;2.00;;;;;;;25.63;53.30;103638.25;10426395;28;20647;-82
2022/07/29 11:00:08;;;;;;;5.85;1.88;;;;;;;25.80;53.14;103678.47;10543549;27;20626;-82
2022/07/29 11:05:12;;;;;;;7.25;2.20;;;;;;;25.66;52.61;103606.06;10486606;28;20396;-82
2022/07/29 11:10:15;;;;;;;12.90;2.28;;;;;;;25.94;52.45;103708.88;10492504;28;20461;-81
2022/07/29 11:15:20;;;;;;;9.38;2.33;;;;;;;25.79;52.29;103623.00;10476154;28;20693;-83
2022/07/29 11:20:47;;;;;;;;;;;;;;;25.71;52.03;103573.84;10488674;28;20037;-83
2022/07/29 11:26:09;;;;;;;9.05;2.20;;;;;;;25.44;51.48;103438.88;10475615;28;20383;-82
2022/07/29 11:37:25;;;;;;;6.82;2.22;;;;;;;25.61;51.05;103467.44;10475509;28;20408;-80
2022/07/29 11:42:32;;;;;;;9.40;1.95;;;;;;;25.65;50.85;103480.84;10497363;28;20133;-79
2022/07/29 11:48:00;;;;;;;7.82;2.10;;;;;;;25.80;50.46;103525.50;10504386;28;20056;-85
2022/07/29 11:53:24;;;;;;;8.95;1.98;;;;;;;25.63;50.37;103445.09;10481239;28;20048;-85
2022/07/29 11:58:32;;;;;;;8.77;2.13;;;;;;;25.40;50.15;103329.84;10476600;28;20041;-86
2022/07/29 12:03:34;;;;;;;12.52;2.55;;;;;;;25.30;50.29;103285.22;10494739;28;20499;-87
2022/07/29 12:08:44;;;;;;;7.47;2.15;;;;;;;25.24;49.69;103252.13;10487731;28;20636;-80
2022/07/29 12:13:49;;;;;;;6.85;1.65;;;;;;;25.18;49.57;103206.59;10470226;28;20060;-81
2022/07/29 12:18:58;;;;;;;4.03;1.80;;;;;;;25.29;49.75;103245.84;10461873;28;20408;-80
2022/07/29 12:24:00;;;;;;;10.18;2.03;;;;;;;24.95;49.53;103095.94;10452136;28;20647;-78
2022/07/29 12:29:16;;;;;;;9.20;2.08;;;;;;;24.97;49.43;103095.06;10464569;28;20044;-81
2022/07/29 12:34:35;;;;;;;6.72;1.83;;;;;;;25.17;49.35;103167.28;10475426;28;20041;-79
2022/07/29 12:39:38;;;;;;;11.85;1.73;;;;;;;25.29;49.23;103208.31;10467145;28;20040;-82
2022/07/29 12:44:45;;;;;;;5.18;1.70;;;;;;;25.04;49.20;103099.47;10453243;28;20041;-81
2022/07/29 12:49:48;;;;;;;9.38;1.70;;;;;;;25.01;48.97;103085.19;10444868;28;20044;-83
2022/07/29 12:54:49;;;;;;;5.53;1.73;;;;;;;25.12;48.97;103115.50;10449408;28;20098;-85
2022/07/29 13:00:12;;;;;;;7.32;1.75;;;;;;;25.07;49.25;103090.50;10457398;28;20072;-85
2022/07/29 13:05:14;;;;;;;6.03;1.60;;;;;;;25.07;48.87;103082.44;10463476;28;20049;-77
2022/07/29 13:10:19;;;;;;;7.25;2.00;;;;;;;25.16;48.87;103100.25;10459748;28;20052;-80
2022/07/29 13:15:25;;;;;;;8.45;1.50;;;;;;;24.97;48.77;103024.50;10469615;28;20041;-77
2022/07/29 13:20:31;;;;;;;7.93;1.70;;;;;;;24.68;48.82;102899.69;10454592;28;20553;-80
2022/07/29 13:25:40;;;;;;;8.20;1.55;;;;;;;24.55;48.68;102831.06;10451462;28;20098;-82
2022/07/29 13:30:43;;;;;;;4.60;1.27;;;;;;;24.40;48.67;102771.38;10458631;28;20053;-86
2022/07/29 13:35:45;;;;;;;6.15;1.60;;;;;;;24.31;48.33;102723.28;10455642;28;20099;-84
2022/07/29 13:40:47;;;;;;;6.95;1.40;;;;;;;24.28;48.25;102709.94;10458288;28;20483;-84
2022/07/29 13:45:49;;;;;;;5.15;1.42;;;;;;;24.31;48.25;102715.25;10455826;28;20406;-82
2022/07/29 13:50:50;;;;;;;2.75;1.20;;;;;;;24.33;48.24;102724.16;10465957;28;20048;-84
2022/07/29 13:55:52;;;;;;;8.68;1.40;;;;;;;24.38;48.16;102729.44;10465106;28;20036;-83
2022/07/29 14:00:56;;;;;;;3.63;1.35;;;;;;;24.30;48.32;102700.09;10453796;28;20068;-83
2022/07/29 14:05:59;;;;;;;5.13;1.67;;;;;;;24.32;47.96;102699.19;10457231;28;20128;-82
2022/07/29 14:11:01;;;;;;;7.97;1.60;;;;;;;24.20;48.18;102644.88;10460393;28;20056;-87
2022/07/29 14:16:03;;;;;;;5.90;1.60;;;;;;;24.06;48.14;102595.06;10466212;28;20036;-82
2022/07/29 14:21:05;;;;;;;5.63;1.38;;;;;;;23.95;48.37;102541.69;10463413;28;20064;-82
2022/07/29 14:26:07;;;;;;;6.50;1.60;;;;;;;23.87;48.36;102513.22;10452544;28;20139;-82
2022/07/29 14:31:13;;;;;;;7.00;1.92;;;;;;;23.80;48.42;102491.88;10457894;28;20041;-83
2022/07/29 14:36:15;;;;;;;6.07;1.67;;;;;;;23.68;48.19;102433.19;10463593;28;20075;-82
2022/07/29 14:41:17;;;;;;;4.22;1.50;;;;;;;23.67;48.28;102430.53;10455037;28;20045;-82
2022/07/29 14:46:19;;;;;;;7.72;1.98;;;;;;;23.51;48.43;102371.91;10468157;28;20515;-82
2022/07/29 14:51:21;;;;;;;7.95;1.77;;;;;;;23.41;48.39;102323.00;10459735;28;20103;-83
2022/07/29 14:56:26;;;;;;;5.65;1.55;;;;;;;23.27;48.55;102271.53;10451215;28;20043;-83
2022/07/29 15:01:39;;;;;;;6.07;1.80;;;;;;;23.14;48.81;102221.81;10463024;28;20040;-83
2022/07/29 15:06:40;;;;;;;5.55;2.13;;;;;;;22.96;48.94;102162.34;10461514;28;20095;-81
2022/07/29 15:11:42;;;;;;;6.53;1.90;;;;;;;22.69;49.30;102057.66;10448913;28;20470;-85
2022/07/29 15:16:45;;;;;;;7.00;2.08;;;;;;;22.45;49.58;101975.25;10428738;28;20068;-84
2022/07/29 15:21:49;;;;;;;6.13;1.70;;;;;;;22.13;50.24;101862.72;10433969;28;20048;-82
2022/07/29 15:26:51;;;;;;;10.52;3.38;;;;;;;21.99;50.51;101820.25;10441802;28;20047;-83
2022/07/29 15:31:53;;;;;;;10.75;3.38;;;;;;;21.93;50.87;101816.75;10438973;28;20483;-83
2022/07/29 15:36:55;;;;;;;9.13;2.30;;;;;;;21.71;51.45;101737.97;10457737;28;20815;-82
2022/07/29 15:41:59;;;;;;;5.60;1.80;;;;;;;21.56;52.10;101695.56;10444307;28;20145;-85
2022/07/29 15:47:07;;;;;;;14.20;2.50;;;;;;;21.48;52.45;101665.44;10466344;28;20784;-85
2022/07/29 15:52:09;;;;;;;13.52;5.05;;;;;;;21.43;52.70;101661.97;10456776;28;20566;-84
2022/07/29 15:57:13;;;;;;;5.88;2.78;;;;;;;21.30;53.49;101623.94;10447334;28;20044;-84
2022/07/29 16:02:14;;;;;;;4.95;2.20;;;;;;;21.17;53.76;101588.66;10466635;28;20514;-85
2022/07/29 16:07:17;;;;;;;5.78;1.95;;;;;;;21.05;54.16;101549.75;10459580;28;20045;-84
2022/07/29 16:12:18;;;;;;;7.00;1.80;;;;;;;20.98;54.35;101529.44;10451926;28;20048;-83
2022/07/29 16:17:20;;;;;;;9.88;2.30;;;;;;;20.96;54.80;101534.78;10455647;28;20040;-83
2022/07/29 16:22:22;;;;;;;5.97;2.10;;;;;;;20.98;55.20;101550.75;10476208;28;20048;-82
2022/07/29 16:27:26;;;;;;;10.77;2.17;;;;;;;20.86;55.43;101517.19;10452331;28;20045;-83
2022/07/29 16:32:38;;;;;;;14.15;2.17;;;;;;;20.81;55.92;101506.59;10465715;28;20040;-83
2022/07/29 16:37:40;;;;;;;6.28;2.10;;;;;;;20.71;55.85;101472.16;10471381;28;20534;-84
2022/07/29 16:42:42;;;;;;;8.65;2.15;;;;;;;20.63;56.47;101440.31;10449202;28;20079;-84
2022/07/29 16:47:48;;;;;;;7.68;3.03;;;;;;;20.54;56.53;101422.69;10453640;28;20041;-84
2022/07/29 16:52:50;;;;;;;9.25;2.00;;;;;;;20.55;56.75;101428.88;10459012;28;20123;-84
2022/07/29 16:57:52;;;;;;;9.45;2.38;;;;;;;20.58;56.80;101447.47;10462238;28;20040;-84
2022/07/29 17:02:54;;;;;;;5.78;2.15;;;;;;;20.56;57.10;101444.84;10458281;28;20049;-83
2022/07/29 17:07:57;;;;;;;4.72;2.05;;;;;;;20.52;57.37;101437.78;10447366;28;20412;-85
2022/07/29 17:12:59;;;;;;;5.90;2.00;;;;;;;20.47;57.39;101419.22;10451116;28;20128;-84
2022/07/29 17:18:01;;;;;;;8.07;2.20;;;;;;;20.42;57.68;101407.78;10458365;28;21119;-86
2022/07/29 17:23:13;;;;;;;9.32;2.15;;;;;;;20.37;58.01;101387.47;10452839;28;20126;-86
2022/07/29 17:28:15;;;;;;;8.85;2.10;;;;;;;20.38;57.88;101403.41;10438098;28;20539;-87
2022/07/29 17:33:16;;;;;;;4.53;2.35;;;;;;;20.35;58.26;101386.63;10462811;28;20511;-84
2022/07/29 17:38:19;;;;;;;4.57;1.92;;;;;;;20.26;58.34;101364.56;10457470;28;20135;-84
2022/07/29 17:43:22;;;;;;;11.10;2.78;;;;;;;20.24;58.16;101357.53;10443017;28;20415;-84
2022/07/29 17:48:25;;;;;;;4.78;2.00;;;;;;;20.22;58.67;101360.22;10429413;28;20551;-81
2022/07/29 17:53:27;;;;;;;6.07;1.90;;;;;;;20.21;58.44;101352.25;10444361;28;20409;-81
2022/07/29 17:58:29;;;;;;;7.85;2.08;;;;;;;20.25;58.70;101370.81;10446320;28;20120;-82
2022/07/29 18:03:31;;;;;;;7.45;3.05;;;;;;;20.20;58.59;101354.03;10449704;28;20067;-81
2022/07/29 18:08:33;;;;;;;7.68;2.95;;;;;;;20.18;58.78;101341.66;10440830;28;20072;-81
2022/07/29 18:13:35;;;;;;;6.82;2.50;;;;;;;20.10;58.67;101323.13;10445280;28;20070;-82
2022/07/29 18:18:37;;;;;;;6.80;2.30;;;;;;;20.09;58.97;101311.63;10451542;28;20046;-82
2022/07/29 18:23:39;;;;;;;10.85;2.75;;;;;;;19.92;59.19;101253.41;10446047;28;20060;-84
2022/07/29 18:28:41;;;;;;;10.35;2.83;;;;;;;19.81;59.31;101215.47;10459217;28;20056;-84
2022/07/29 18:33:43;;;;;;;7.15;3.03;;;;;;;19.57;59.63;101137.84;10453915;28;20503;-84
2022/07/29 18:38:44;;;;;;;7.97;3.20;;;;;;;19.44;59.94;101093.78;10456616;28;20135;-84
2022/07/29 18:43:46;;;;;;;9.13;2.50;;;;;;;19.45;60.14;101106.16;10462619;28;20041;-84
2022/07/29 18:48:48;;;;;;;5.82;2.70;;;;;;;19.39;60.54;101088.53;10351617;28;180216;-83
2022/07/29 18:53:51;;;;;;;8.50;2.88;;;;;;;19.35;60.63;101073.59;10501938;28;20071;-83
2022/07/29 18:58:53;;;;;;;7.93;2.47;;;;;;;19.35;60.91;101083.31;10502995;28;20064;-83
2022/07/29 19:03:55;;;;;;;7.10;2.50;;;;;;;19.27;61.12;101050.69;10509773;28;20093;-82
2022/07/29 19:08:57;;;;;;;6.68;2.65;;;;;;;19.25;61.19;101056.88;10502384;28;20547;-83
2022/07/29 19:13:59;;;;;;;6.90;3.15;;;;;;;19.23;61.48;101044.53;10512891;28;20046;-83
2022/07/29 19:19:00;;;;;;;6.50;2.10;;;;;;;19.22;61.74;101053.41;10503843;28;21313;-83
2022/07/29 19:24:03;;;;;;;5.03;1.88;;;;;;;19.25;61.74;101066.66;10514593;28;20851;-83
2022/07/29 19:29:08;;;;;;;16.67;3.13;;;;;;;19.24;62.29;101079.03;10518968;28;20038;-84
2022/07/29 19:34:10;;;;;;;12.50;3.10;;;;;;;19.29;62.29;101094.00;10516333;28;20071;-82
2022/07/29 19:39:14;;;;;;;10.95;2.78;;;;;;;19.32;62.42;101121.41;10516882;28;20510;-83
2022/07/29 19:44:15;;;;;;;6.78;2.13;;;;;;;19.30;62.26;101114.38;10522486;28;20131;-82
2022/07/29 19:49:17;;;;;;;10.77;2.38;;;;;;;19.25;62.63;101099.38;10521196;28;20090;-83
2022/07/29 19:54:19;;;;;;;6.57;2.33;;;;;;;19.15;62.36;101065.88;10515582;28;20477;-83
2022/07/29 19:59:21;;;;;;;9.88;2.42;;;;;;;19.04;62.59;101020.06;10519841;28;20032;-82
2022/07/29 20:04:25;;;;;;;8.63;2.67;;;;;;;18.91;62.59;100971.56;10500514;28;20434;-84
2022/07/29 20:09:26;;;;;;;8.60;2.40;;;;;;;18.82;62.87;100943.38;10517459;28;20153;-83
2022/07/29 20:14:28;;;;;;;9.63;2.85;;;;;;;18.75;63.10;100923.16;10521524;28;20040;-83
2022/07/29 20:19:31;;;;;;;8.38;2.90;;;;;;;18.62;63.53;100884.47;10519798;28;20044;-82
2022/07/29 20:24:33;;;;;;;5.97;2.60;;;;;;;18.49;63.73;100823.63;10514733;28;20040;-83
2022/07/29 20:29:36;;;;;;;8.10;3.17;;;;;;;18.44;63.48;100817.53;10504436;28;20677;-83
2022/07/29 20:34:40;;;;;;;7.22;2.88;;;;;;;18.35;63.91;100780.56;10519257;28;20047;-82
2022/07/29 20:39:41;;;;;;;7.03;3.33;;;;;;;18.33;64.06;100777.03;10517468;28;20652;-83
2022/07/29 20:44:43;;;;;;;5.68;2.88;;;;;;;18.28;64.15;100768.28;10524312;28;20058;-83
2022/07/29 20:49:45;;;;;;;6.22;2.70;;;;;;;18.19;64.49;100742.81;10518786;28;20040;-82
2022/07/29 20:54:47;;;;;;;6.57;3.08;;;;;;;18.11;64.91;100720.88;10523715;28;20143;-82
2022/07/29 20:59:49;;;;;;;6.25;2.60;;;;;;;18.05;64.69;100705.06;10519899;28;20214;-82
2022/07/29 21:04:51;;;;;;;9.93;2.95;;;;;;;17.97;65.18;100676.91;10519068;28;20130;-83
2022/07/29 21:09:52;;;;;;;7.93;3.30;;;;;;;17.91;65.30;100662.88;10515112;28;20406;-82
2022/07/29 21:14:54;;;;;;;6.78;2.90;;;;;;;17.83;65.62;100637.38;10513081;28;20081;-82
2022/07/29 21:19:56;;;;;;;8.73;3.13;;;;;;;17.78;65.58;100620.66;10516192;28;20164;-84
2022/07/29 21:24:58;;;;;;;10.13;3.40;;;;;;;17.69;65.92;100599.59;10502861;28;20052;-82
2022/07/29 21:29:59;;;;;;;8.98;3.08;;;;;;;17.59;66.20;100560.94;10515637;28;20517;-83
2022/07/29 21:35:02;;;;;;;5.72;3.30;;;;;;;17.45;66.17;100506.44;10512808;28;20044;-81
2022/07/29 21:40:15;;;;;;;8.23;3.17;;;;;;;17.37;66.39;100475.69;10519314;28;20113;-82
2022/07/29 21:45:17;;;;;;;7.63;3.17;;;;;;;17.26;66.92;100446.75;10526997;28;20039;-81
2022/07/29 21:50:19;;;;;;;8.30;3.88;;;;;;;17.23;66.87;100441.50;10518186;28;20036;-84
2022/07/29 21:55:20;;;;;;;7.88;3.60;;;;;;;17.15;67.16;100417.81;10515633;28;20040;-82
2022/07/29 22:00:25;;;;;;;6.82;3.55;;;;;;;17.01;67.47;100366.91;10519300;28;20043;-82
2022/07/29 22:05:28;;;;;;;8.70;3.53;;;;;;;16.94;67.35;100345.00;10505805;28;20490;-82
2022/07/29 22:10:30;;;;;;;5.88;3.20;;;;;;;16.89;67.67;100333.59;10517595;28;20040;-84
2022/07/29 22:15:32;;;;;;;7.20;3.08;;;;;;;16.87;67.78;100335.41;10513814;28;20128;-82
2022/07/29 22:20:33;;;;;;;8.15;3.40;;;;;;;16.84;68.04;100328.34;10513778;28;20078;-82
2022/07/29 22:25:36;;;;;;;7.97;3.10;;;;;;;16.82;68.56;100332.81;10519176;28;20515;-84
2022/07/29 22:30:37;;;;;;;7.55;4.18;;;;;;;16.74;68.52;100317.06;10519261;28;20028;-82
2022/07/29 22:35:39;;;;;;;9.20;3.58;;;;;;;16.71;68.86;100298.63;10516895;28;20044;-84
2022/07/29 22:40:40;;;;;;;8.73;3.25;;;;;;;16.71;69.08;100310.94;10513867;28;20032;-82
2022/07/29 22:45:44;;;;;;;8.73;3.70;;;;;;;16.72;69.06;100323.25;10514622;28;20040;-82
2022/07/29 22:50:46;;;;;;;8.32;3.78;;;;;;;16.74;69.55;100338.22;10518334;28;20040;-83
2022/07/29 22:55:48;;;;;;;9.27;3.90;;;;;;;16.80;69.64;100368.97;10516015;28;20057;-82
2022/07/29 23:00:50;;;;;;;11.23;4.25;;;;;;;16.77;69.75;100364.59;10515465;28;20044;-80
2022/07/29 23:05:52;;;;;;;11.73;4.13;;;;;;;16.76;70.11;100372.56;10516711;28;21185;-82
2022/07/29 23:10:53;;;;;;;8.23;3.65;;;;;;;16.77;70.42;100385.75;10515522;28;20036;-82
2022/07/29 23:15:55;;;;;;;7.03;3.13;;;;;;;16.77;70.46;100393.69;10515511;28;20044;-84
2022/07/29 23:20:57;;;;;;;6.00;3.33;;;;;;;16.78;70.70;100392.81;10513899;28;20130;-82